createdAt,value
2023-01-29T00:00:03.832Z,1.95
2023-01-29T00:05:25.525Z,1.92
2023-01-29T00:10:20.349Z,2.09
2023-01-29T00:15:15.098Z,2.05
2023-01-29T00:20:08.976Z,2.09
2023-01-29T00:25:02.322Z,2.11
2023-01-29T00:35:13.979Z,1.92
2023-01-29T00:40:08.616Z,2.15
2023-01-29T00:45:00.845Z,2.00
2023-01-29T00:49:54.443Z,2.20
2023-01-29T00:54:49.826Z,2.09
2023-01-29T00:59:43.097Z,2.15
2023-01-29T01:04:36.333Z,1.91
2023-01-29T01:09:46.832Z,2.08
2023-01-29T01:14:43.289Z,1.24
2023-01-29T01:19:36.892Z,2.28
2023-01-29T01:24:30.391Z,2.14
2023-01-29T01:29:24.569Z,2.27
2023-01-29T01:34:21.839Z,2.24
2023-01-29T01:39:15.355Z,1.73
2023-01-29T01:44:08.629Z,2.11
2023-01-29T01:49:06.526Z,1.96
2023-01-29T01:54:06.671Z,2.21
2023-01-29T01:59:00.650Z,2.22
2023-01-29T02:04:17.566Z,1.81
2023-01-29T02:09:35.774Z,2.21
2023-01-29T02:14:30.742Z,1.92
2023-01-29T02:19:31.486Z,2.18
2023-01-29T02:24:38.186Z,2.24
2023-01-29T02:29:39.463Z,1.96
2023-01-29T02:34:59.679Z,2.16
2023-01-29T02:40:00.124Z,2.15
2023-01-29T02:45:00.651Z,2.16
2023-01-29T02:50:02.209Z,1.76
2023-01-29T02:55:02.958Z,2.13
2023-01-29T03:00:01.867Z,1.64
2023-01-29T03:05:01.259Z,2.16
2023-01-29T03:09:56.464Z,2.01
2023-01-29T03:15:09.790Z,1.93
2023-01-29T03:20:09.254Z,1.93
2023-01-29T03:25:22.812Z,2.15
2023-01-29T03:30:37.297Z,1.91
2023-01-29T03:36:02.576Z,2.00
2023-01-29T03:41:01.227Z,2.11
2023-01-29T03:46:04.950Z,1.94
2023-01-29T03:51:07.680Z,2.02
2023-01-29T03:56:03.801Z,1.93
2023-01-29T04:01:02.700Z,2.12
2023-01-29T04:06:05.632Z,2.12
2023-01-29T04:11:07.266Z,1.98
2023-01-29T04:16:05.582Z,1.90
2023-01-29T04:21:20.555Z,1.94
2023-01-29T04:26:34.180Z,1.81
2023-01-29T04:31:36.736Z,1.88
2023-01-29T04:36:40.242Z,2.09
2023-01-29T04:41:37.709Z,2.07
2023-01-29T04:46:37.146Z,2.09
2023-01-29T04:51:44.386Z,2.09
2023-01-29T04:56:45.375Z,2.08
2023-01-29T05:01:40.064Z,1.91
2023-01-29T05:06:37.084Z,2.08
2023-01-29T05:11:33.412Z,1.79
2023-01-29T05:16:29.857Z,2.08
2023-01-29T05:21:24.286Z,1.93
2023-01-29T05:26:36.156Z,1.64
2023-01-29T05:31:29.372Z,1.80
2023-01-29T05:36:22.591Z,1.88
2023-01-29T05:41:17.204Z,2.07
2023-01-29T05:46:11.709Z,1.83
2023-01-29T05:51:06.312Z,2.08
2023-01-29T05:56:02.692Z,2.08
2023-01-29T06:00:55.866Z,2.08
2023-01-29T06:05:50.451Z,1.82
2023-01-29T06:10:43.638Z,2.06
2023-01-29T06:15:36.745Z,1.96
2023-01-29T06:20:29.905Z,1.90
2023-01-29T06:25:24.555Z,1.84
2023-01-29T06:30:18.558Z,2.20
2023-01-29T06:35:11.925Z,2.22
2023-01-29T06:40:05.620Z,2.26
2023-01-29T06:45:00.168Z,2.21
2023-01-29T06:49:53.354Z,1.83
2023-01-29T06:54:46.475Z,2.29
2023-01-29T06:59:39.666Z,1.97
2023-01-29T07:04:35.558Z,2.38
2023-01-29T07:09:28.883Z,2.45
2023-01-29T07:14:22.080Z,2.41
2023-01-29T07:19:15.566Z,2.30
2023-01-29T07:24:10.648Z,1.91
2023-01-29T07:29:05.756Z,2.41
2023-01-29T07:33:59.092Z,2.69
2023-01-29T07:38:55.252Z,2.55
2023-01-29T07:43:50.031Z,2.65
2023-01-29T07:48:43.479Z,2.61
2023-01-29T07:53:37.126Z,2.90
2023-01-29T07:58:32.303Z,3.02
2023-01-29T08:03:27.056Z,2.43
2023-01-29T08:08:20.508Z,3.17
2023-01-29T08:13:13.753Z,3.23
2023-01-29T08:18:07.443Z,3.13
2023-01-29T08:23:04.609Z,3.32
2023-01-29T08:27:59.109Z,3.15
2023-01-29T08:32:52.326Z,3.12
2023-01-29T08:37:46.740Z,2.70
2023-01-29T08:42:42.584Z,3.22
2023-01-29T08:47:35.885Z,3.58
2023-01-29T08:52:31.316Z,3.66
2023-01-29T08:57:24.482Z,3.52
2023-01-29T09:02:19.105Z,3.71
2023-01-29T09:07:14.320Z,3.32
2023-01-29T09:12:08.104Z,3.42
2023-01-29T09:17:01.378Z,3.32
2023-01-29T09:21:58.351Z,3.21
2023-01-29T09:26:51.483Z,3.12
2023-01-29T09:31:44.754Z,2.96
2023-01-29T09:36:38.208Z,2.83
2023-01-29T09:41:45.393Z,2.86
2023-01-29T09:46:42.209Z,3.21
2023-01-29T09:51:41.385Z,2.93
2023-01-29T09:56:36.799Z,3.11
2023-01-29T10:01:37.135Z,3.10
2023-01-29T10:06:44.494Z,3.33
2023-01-29T10:11:52.499Z,3.53
2023-01-29T10:16:57.470Z,3.63
2023-01-29T10:22:14.067Z,3.47
2023-01-29T10:27:16.314Z,3.77
2023-01-29T10:32:15.843Z,3.58
2023-01-29T10:37:18.651Z,3.73
2023-01-29T10:42:24.541Z,2.89
2023-01-29T10:47:59.829Z,3.57
2023-01-29T10:53:08.401Z,3.51
2023-01-29T10:58:12.346Z,3.51
2023-01-29T11:03:26.916Z,3.21
2023-01-29T11:08:24.353Z,3.60
2023-01-29T11:13:19.814Z,3.79
2023-01-29T11:18:15.971Z,3.74
2023-01-29T11:23:27.878Z,3.81
2023-01-29T11:28:38.261Z,3.73
2023-01-29T11:33:32.041Z,3.66
2023-01-29T11:38:29.610Z,3.67
2023-01-29T11:43:30.113Z,3.24
2023-01-29T11:48:28.319Z,3.53
2023-01-29T11:53:36.062Z,3.58
2023-01-29T11:58:32.822Z,3.60
2023-01-29T12:03:33.670Z,3.46
2023-01-29T12:08:30.792Z,3.56
2023-01-29T12:13:28.401Z,3.59
2023-01-29T12:18:28.000Z,3.45
2023-01-29T12:23:33.995Z,3.75
2023-01-29T12:28:38.127Z,3.50
2023-01-29T12:33:40.813Z,3.67
2023-01-29T12:38:37.243Z,3.46
2023-01-29T12:43:43.462Z,3.52
2023-01-29T12:48:40.180Z,3.17
2023-01-29T12:53:41.399Z,3.15
2023-01-29T12:58:39.374Z,3.29
2023-01-29T13:03:44.300Z,3.17
2023-01-29T13:08:43.860Z,3.34
2023-01-29T13:13:45.108Z,3.12
2023-01-29T13:18:45.150Z,3.23
2023-01-29T13:23:43.209Z,3.38
2023-01-29T13:28:38.004Z,3.32
2023-01-29T13:33:34.605Z,3.43
2023-01-29T13:38:30.949Z,3.24
2023-01-29T13:43:25.674Z,3.42
2023-01-29T13:48:25.607Z,3.40
2023-01-29T13:53:24.315Z,2.71
2023-01-29T13:58:19.675Z,3.34
2023-01-29T14:04:03.415Z,3.36
2023-01-29T14:08:55.934Z,3.17
2023-01-29T14:13:52.482Z,2.18
2023-01-29T14:18:49.651Z,3.27
2023-01-29T14:23:46.929Z,2.63
2023-01-29T14:28:41.755Z,3.20
2023-01-29T14:33:38.024Z,3.12
2023-01-29T14:38:35.962Z,3.22
2023-01-29T14:43:29.122Z,3.18
2023-01-29T14:48:38.963Z,2.41
2023-01-29T14:53:46.961Z,3.00
2023-01-29T14:58:46.253Z,3.11
2023-01-29T15:03:45.880Z,3.27
2023-01-29T15:08:49.701Z,3.05
2023-01-29T15:13:50.468Z,3.33
2023-01-29T15:18:48.996Z,2.46
2023-01-29T15:23:44.482Z,3.26
2023-01-29T15:28:38.853Z,3.30
2023-01-29T15:33:33.482Z,3.17
2023-01-29T15:38:27.487Z,2.61
2023-01-29T15:43:24.296Z,3.32
2023-01-29T15:48:20.871Z,3.33
2023-01-29T15:53:21.374Z,2.92
2023-01-29T15:58:18.881Z,3.20
2023-01-29T16:03:17.178Z,3.34
2023-01-29T16:08:14.473Z,3.32
2023-01-29T16:13:15.427Z,2.54
2023-01-29T16:18:22.712Z,2.74
2023-01-29T16:23:19.342Z,3.06
2023-01-29T16:28:14.596Z,3.16
2023-01-29T16:33:13.226Z,3.06
2023-01-29T16:38:27.857Z,3.28
2023-01-29T16:43:49.668Z,3.31
2023-01-29T16:48:44.730Z,2.12
2023-01-29T16:53:39.449Z,3.19
2023-01-29T16:58:35.014Z,3.32
2023-01-29T17:03:31.680Z,2.78
2023-01-29T17:08:29.055Z,2.49
2023-01-29T17:13:32.976Z,3.35
2023-01-29T17:18:26.702Z,2.76
2023-01-29T17:23:21.888Z,2.78
2023-01-29T17:28:19.350Z,2.80
2023-01-29T17:33:15.617Z,3.27
2023-01-29T17:38:24.296Z,2.65
2023-01-29T17:43:19.111Z,3.39
2023-01-29T17:48:18.183Z,2.75
2023-01-29T17:53:11.603Z,3.37
2023-01-29T17:58:05.087Z,3.28
2023-01-29T18:03:01.702Z,3.10
2023-01-29T18:07:56.615Z,2.55
2023-01-29T18:12:53.059Z,2.79
2023-01-29T18:17:52.206Z,3.43
2023-01-29T18:23:04.325Z,2.29
2023-01-29T18:28:01.018Z,3.20
2023-01-29T18:32:54.796Z,3.34
2023-01-29T18:37:48.310Z,3.29
2023-01-29T18:42:43.238Z,2.27
2023-01-29T18:47:36.612Z,3.44
2023-01-29T18:52:29.991Z,2.96
2023-01-29T18:58:26.171Z,3.07
2023-01-29T19:02:40.191Z,2.24
2023-01-29T19:07:34.396Z,3.29
2023-01-29T19:12:27.753Z,3.00
2023-01-29T19:17:21.083Z,3.26
2023-01-29T19:22:16.595Z,3.53
2023-01-29T19:27:10.066Z,3.31
2023-01-29T19:32:08.973Z,2.41
2023-01-29T19:37:02.470Z,2.95
2023-01-29T19:41:57.214Z,3.55
2023-01-29T19:46:50.659Z,2.87
2023-01-29T19:51:44.915Z,3.57
2023-01-29T19:56:38.619Z,3.58
2023-01-29T20:01:34.166Z,3.59
2023-01-29T20:06:32.220Z,3.60
2023-01-29T20:11:26.166Z,3.47
2023-01-29T20:16:20.779Z,3.18
2023-01-29T20:21:18.007Z,2.90
2023-01-29T20:26:15.211Z,3.33
2023-01-29T20:31:10.915Z,3.28
2023-01-29T20:36:06.428Z,3.52
2023-01-29T20:41:07.131Z,3.04
2023-01-29T20:46:01.473Z,3.11
2023-01-29T20:50:55.313Z,3.42
2023-01-29T20:55:48.630Z,2.71
2023-01-29T21:00:43.720Z,3.10
2023-01-29T21:05:40.402Z,3.34
2023-01-29T21:10:36.167Z,2.80
2023-01-29T21:15:31.802Z,3.39
2023-01-29T21:20:26.735Z,2.89
2023-01-29T21:25:21.441Z,3.23
2023-01-29T21:30:15.385Z,2.70
2023-01-29T21:35:09.732Z,3.01
2023-01-29T21:40:04.651Z,2.49
2023-01-29T21:45:00.553Z,2.34
2023-01-29T21:49:53.772Z,2.84
2023-01-29T21:54:48.984Z,2.55
2023-01-29T21:59:46.869Z,2.52
2023-01-29T22:04:46.178Z,2.41
2023-01-29T22:09:39.864Z,2.07
2023-01-29T22:14:33.185Z,2.19
2023-01-29T22:19:30.339Z,1.41
2023-01-29T22:24:25.131Z,2.47
2023-01-29T22:29:19.705Z,2.62
2023-01-29T22:34:17.112Z,2.01
2023-01-29T22:39:11.921Z,2.38
2023-01-29T22:44:05.397Z,2.21
2023-01-29T22:48:58.577Z,1.92
2023-01-29T22:53:53.625Z,2.22
2023-01-29T22:58:51.663Z,1.51
2023-01-29T23:03:45.634Z,1.29
2023-01-29T23:08:38.922Z,2.24
2023-01-29T23:13:32.095Z,2.16
2023-01-29T23:18:27.108Z,2.15
2023-01-29T23:23:20.319Z,2.11
2023-01-29T23:28:13.775Z,1.67
2023-01-29T23:33:12.072Z,1.88
2023-01-29T23:38:06.969Z,0.79
2023-01-29T23:43:00.109Z,1.90
2023-01-29T23:47:53.284Z,1.19
2023-01-29T23:52:46.494Z,1.45
2023-01-29T23:57:43.703Z,1.51
